Time,TemperatureF,DewpointF,PressureIn,WindDirection,WindDirectionDegrees,WindSpeedMPH,WindSpeedGustMPH,Humidity,HourlyPrecipIn,Conditions,Clouds,dailyrainin,SoftwareType,DateUTC
2013-03-13 00:04:00,46.0,36.0,30.25,NNE,23,0.0,-999.0,69,-99.99,,,0.00,weatherlink.com 1.10,2013-03-13 05:04:00,
2013-03-13 00:19:00,45.4,36.0,30.25,NNE,23,0.0,-999.0,71,-99.99,,,0.00,weatherlink.com 1.10,2013-03-13 05:19:00,
2013-03-13 00:34:00,44.8,36.0,30.25,NNE,23,0.0,-999.0,72,-99.99,,,0.00,weatherlink.com 1.10,2013-03-13 05:34:00,
2013-03-13 00:49:00,44.3,36.0,30.25,NNE,23,0.0,-999.0,72,-99.99,,,0.00,weatherlink.com 1.10,2013-03-13 05:49:00,
2013-03-13 01:04:00,43.9,36.0,30.25,NNE,23,0.0,-999.0,74,-99.99,,,0.00,weatherlink.com 1.10,2013-03-13 06:04:00,
2013-03-13 01:19:00,43.5,36.0,30.25,NNE,23,0.0,-999.0,74,-99.99,,,0.00,weatherlink.com 1.10,2013-03-13 06:19:00,
2013-03-13 01:34:00,43.1,36.0,30.26,NNE,23,0.0,-999.0,75,-99.99,,,0.00,weatherlink.com 1.10,2013-03-13 06:34:00,
2013-03-13 01:49:00,42.8,36.0,30.26,NNE,23,0.0,-999.0,76,-99.99,,,0.00,weatherlink.com 1.10,2013-03-13 06:49:00,
2013-03-13 02:04:00,42.3,36.0,30.26,NNE,23,0.0,-999.0,77,-99.99,,,0.00,weatherlink.com 1.10,2013-03-13 07:04:00,
2013-03-13 02:19:00,41.9,36.0,30.26,NNE,23,0.0,-999.0,78,-99.99,,,0.00,weatherlink.com 1.10,2013-03-13 07:19:00,
2013-03-13 02:34:00,41.6,36.0,30.26,NNE,23,0.0,-999.0,79,-99.99,,,0.00,weatherlink.com 1.10,2013-03-13 07:34:00,
2013-03-13 02:49:00,41.2,36.0,30.26,NNE,23,0.0,-999.0,80,-99.99,,,0.00,weatherlink.com 1.10,2013-03-13 07:49:00,
2013-03-13 03:04:00,40.8,35.0,30.26,NNE,23,0.0,-999.0,80,-99.99,,,0.00,weatherlink.com 1.10,2013-03-13 08:04:00,
2013-03-13 03:19:00,40.6,36.0,30.27,NNE,23,0.0,-999.0,82,-99.99,,,0.00,weatherlink.com 1.10,2013-03-13 08:19:00,
2013-03-13 03:34:00,40.5,36.0,30.27,NNE,23,0.0,-999.0,83,-99.99,,,0.00,weatherlink.com 1.10,2013-03-13 08:34:00,
2013-03-13 03:49:00,40.3,36.0,30.27,NNE,23,0.0,-999.0,84,-99.99,,,0.00,weatherlink.com 1.10,2013-03-13 08:49:00,
2013-03-13 04:04:00,40.1,36.0,30.27,NNE,23,0.0,-999.0,84,-99.99,,,0.00,weatherlink.com 1.10,2013-03-13 09:04:00,
2013-03-13 04:19:00,39.9,36.0,30.29,NNE,23,0.0,-999.0,85,-99.99,,,0.00,weatherlink.com 1.10,2013-03-13 09:19:00,
2013-03-13 04:34:00,39.9,36.0,30.29,NNE,23,0.0,-999.0,86,-99.99,,,0.00,weatherlink.com 1.10,2013-03-13 09:34:00,
2013-03-13 04:48:00,40.1,37.0,30.29,NNE,23,0.0,-999.0,87,-99.99,,,0.00,weatherlink.com 1.10,2013-03-13 09:48:00,
2013-03-13 05:04:00,40.2,37.0,30.30,NNE,23,0.0,-999.0,87,-99.99,,,0.00,weatherlink.com 1.10,2013-03-13 10:04:00,
2013-03-13 05:19:00,40.2,37.0,30.30,NNE,23,1.0,-999.0,88,-99.99,,,0.00,weatherlink.com 1.10,2013-03-13 10:19:00,
2013-03-13 05:35:00,40.2,37.0,30.31,NNE,23,0.0,-999.0,88,-99.99,,,0.00,weatherlink.com 1.10,2013-03-13 10:35:00,
2013-03-13 05:49:00,40.2,37.0,30.31,NNE,23,0.0,-999.0,88,-99.99,,,0.00,weatherlink.com 1.10,2013-03-13 10:49:00,
2013-03-13 06:04:00,40.2,37.0,30.32,NNE,23,0.0,-999.0,88,-99.99,,,0.00,weatherlink.com 1.10,2013-03-13 11:04:00,
2013-03-13 06:19:00,40.1,37.0,30.33,NNE,23,0.0,-999.0,88,-99.99,,,0.00,weatherlink.com 1.10,2013-03-13 11:19:00,
2013-03-13 06:34:00,39.8,37.0,30.34,NNE,23,0.0,-999.0,88,-99.99,,,0.00,weatherlink.com 1.10,2013-03-13 11:34:00,
2013-03-13 06:49:00,39.6,36.0,30.34,NNE,23,0.0,-999.0,87,-99.99,,,0.00,weatherlink.com 1.10,2013-03-13 11:49:00,
2013-03-13 07:04:00,39.5,36.0,30.35,NNE,23,0.0,-999.0,87,-99.99,,,0.00,weatherlink.com 1.10,2013-03-13 12:04:00,
2013-03-13 07:19:00,39.3,36.0,30.35,NNE,23,0.0,-999.0,87,-99.99,,,0.00,weatherlink.com 1.10,2013-03-13 12:19:00,
2013-03-13 07:34:00,39.1,36.0,30.36,NNE,23,0.0,-999.0,87,-99.99,,,0.00,weatherlink.com 1.10,2013-03-13 12:34:00,
2013-03-13 07:49:00,38.8,35.0,30.36,NNE,23,0.0,-999.0,87,-99.99,,,0.00,weatherlink.com 1.10,2013-03-13 12:49:00,
2013-03-13 08:04:00,39.6,36.0,30.37,NNE,24,0.0,-999.0,88,-99.99,,,0.00,weatherlink.com 1.10,2013-03-13 13:04:00,
2013-03-13 08:19:00,42.1,38.0,30.38,NNE,17,0.0,-999.0,86,-99.99,,,0.00,weatherlink.com 1.10,2013-03-13 13:19:00,
2013-03-13 08:34:00,45.4,39.0,30.38,NNW,340,2.0,-999.0,79,-99.99,,,0.00,weatherlink.com 1.10,2013-03-13 13:34:00,
2013-03-13 08:49:00,48.5,38.0,30.39,ENE,72,2.0,-999.0,67,-99.99,,,0.00,weatherlink.com 1.10,2013-03-13 13:49:00,
2013-03-13 09:04:00,51.7,35.0,30.39,North,359,6.0,-999.0,53,-99.99,,,0.00,weatherlink.com 1.10,2013-03-13 14:04:00,
2013-03-13 09:19:00,53.8,33.0,30.40,NNE,30,5.0,-999.0,45,-99.99,,,0.00,weatherlink.com 1.10,2013-03-13 14:19:00,
2013-03-13 09:34:00,55.3,33.0,30.40,North,7,3.0,-999.0,43,-99.99,,,0.00,weatherlink.com 1.10,2013-03-13 14:34:00,
2013-03-13 09:49:00,55.9,30.0,30.41,NNE,14,6.0,-999.0,37,-99.99,,,0.00,weatherlink.com 1.10,2013-03-13 14:49:00,
2013-03-13 10:04:00,56.5,30.0,30.41,NNE,17,6.0,-999.0,37,-99.99,,,0.00,weatherlink.com 1.10,2013-03-13 15:04:00,
2013-03-13 10:19:00,57.3,30.0,30.42,North,11,5.0,-999.0,35,-99.99,,,0.00,weatherlink.com 1.10,2013-03-13 15:19:00,
2013-03-13 10:34:00,58.3,31.0,30.42,North,10,3.0,-999.0,35,-99.99,,,0.00,weatherlink.com 1.10,2013-03-13 15:34:00,
2013-03-13 10:49:00,58.1,31.0,30.42,NNE,24,2.0,-999.0,36,-99.99,,,0.00,weatherlink.com 1.10,2013-03-13 15:49:00,
2013-03-13 11:04:00,59.3,32.0,30.42,NNW,342,3.0,-999.0,36,-99.99,,,0.00,weatherlink.com 1.10,2013-03-13 16:04:00,
2013-03-13 11:19:00,60.5,31.0,30.41,NNE,28,1.0,-999.0,33,-99.99,,,0.00,weatherlink.com 1.10,2013-03-13 16:19:00,
2013-03-13 11:34:00,61.3,33.0,30.41,NNE,21,1.0,-999.0,34,-99.99,,,0.00,weatherlink.com 1.10,2013-03-13 16:34:00,
2013-03-13 11:50:00,62.4,31.0,30.41,NNE,16,6.0,-999.0,31,-99.99,,,0.00,weatherlink.com 1.10,2013-03-13 16:50:00,
2013-03-13 12:04:00,62.7,31.0,30.40,North,0,2.0,-999.0,31,-99.99,,,0.00,weatherlink.com 1.10,2013-03-13 17:04:00,
2013-03-13 12:19:00,63.9,33.0,30.40,North,359,4.0,-999.0,31,-99.99,,,0.00,weatherlink.com 1.10,2013-03-13 17:19:00,
2013-03-13 12:34:00,64.5,31.0,30.40,North,350,2.0,-999.0,28,-99.99,,,0.00,weatherlink.com 1.10,2013-03-13 17:34:00,
2013-03-13 12:49:00,65.2,31.0,30.39,North,10,5.0,-999.0,28,-99.99,,,0.00,weatherlink.com 1.10,2013-03-13 17:49:00,
2013-03-13 13:04:00,65.8,31.0,30.38,NW,318,5.0,-999.0,27,-99.99,,,0.00,weatherlink.com 1.10,2013-03-13 18:04:00,
2013-03-13 13:19:00,66.8,33.0,30.38,NNE,25,4.0,-999.0,29,-99.99,,,0.00,weatherlink.com 1.10,2013-03-13 18:19:00,
2013-03-13 13:34:00,66.3,31.0,30.37,North,359,6.0,-999.0,27,-99.99,,,0.00,weatherlink.com 1.10,2013-03-13 18:34:00,
2013-03-13 13:49:00,67.9,33.0,30.36,North,3,1.0,-999.0,27,-99.99,,,0.00,weatherlink.com 1.10,2013-03-13 18:49:00,
2013-03-13 14:04:00,67.9,33.0,30.36,North,0,4.0,-999.0,27,-99.99,,,0.00,weatherlink.com 1.10,2013-03-13 19:04:00,
2013-03-13 14:19:00,67.9,32.0,30.35,NW,311,2.0,-999.0,26,-99.99,,,0.00,weatherlink.com 1.10,2013-03-13 19:19:00,
2013-03-13 14:34:00,68.3,33.0,30.34,NW,318,7.0,-999.0,27,-99.99,,,0.00,weatherlink.com 1.10,2013-03-13 19:34:00,
2013-03-13 14:49:00,68.3,34.0,30.34,NW,319,5.0,-999.0,28,-99.99,,,0.00,weatherlink.com 1.10,2013-03-13 19:49:00,
2013-03-13 15:04:00,68.6,33.0,30.33,NNE,13,3.0,-999.0,27,-99.99,,,0.00,weatherlink.com 1.10,2013-03-13 20:04:00,
2013-03-13 15:19:00,67.8,32.0,30.32,North,359,3.0,-999.0,26,-99.99,,,0.00,weatherlink.com 1.10,2013-03-13 20:19:00,
2013-03-13 15:34:00,68.3,32.0,30.32,NNE,21,6.0,-999.0,26,-99.99,,,0.00,weatherlink.com 1.10,2013-03-13 20:34:00,
2013-03-13 15:49:00,68.1,33.0,30.32,NNE,18,2.0,-999.0,27,-99.99,,,0.00,weatherlink.com 1.10,2013-03-13 20:49:00,
2013-03-13 16:04:00,68.6,31.0,30.31,NNE,21,5.0,-999.0,25,-99.99,,,0.00,weatherlink.com 1.10,2013-03-13 21:04:00,
2013-03-13 16:19:00,68.6,31.0,30.31,NNE,31,1.0,-999.0,25,-99.99,,,0.00,weatherlink.com 1.10,2013-03-13 21:19:00,
2013-03-13 16:34:00,68.4,31.0,30.31,NE,37,2.0,-999.0,25,-99.99,,,0.00,weatherlink.com 1.10,2013-03-13 21:34:00,
2013-03-13 16:49:00,69.1,32.0,30.30,NW,320,2.0,-999.0,25,-99.99,,,0.00,weatherlink.com 1.10,2013-03-13 21:49:00,
2013-03-13 17:04:00,68.4,31.0,30.30,NNW,346,4.0,-999.0,25,-99.99,,,0.00,weatherlink.com 1.10,2013-03-13 22:04:00,
2013-03-13 17:19:00,68.3,31.0,30.30,NNW,344,3.0,-999.0,25,-99.99,,,0.00,weatherlink.com 1.10,2013-03-13 22:19:00,
2013-03-13 17:34:00,67.6,30.0,30.30,NNW,340,4.0,-999.0,25,-99.99,,,0.00,weatherlink.com 1.10,2013-03-13 22:34:00,
2013-03-13 17:49:00,67.3,30.0,30.30,NE,35,0.0,-999.0,25,-99.99,,,0.00,weatherlink.com 1.10,2013-03-13 22:49:00,
2013-03-13 18:04:00,66.9,29.0,30.30,NW,313,2.0,-999.0,24,-99.99,,,0.00,weatherlink.com 1.10,2013-03-13 23:04:00,
2013-03-13 18:19:00,66.0,29.0,30.30,North,0,3.0,-999.0,25,-99.99,,,0.00,weatherlink.com 1.10,2013-03-13 23:19:00,
2013-03-13 18:34:00,65.6,29.0,30.30,NW,325,2.0,-999.0,25,-99.99,,,0.00,weatherlink.com 1.10,2013-03-13 23:34:00,
2013-03-13 18:49:00,65.2,29.0,30.31,North,6,2.0,-999.0,26,-99.99,,,0.00,weatherlink.com 1.10,2013-03-13 23:49:00,
2013-03-13 19:04:00,64.3,29.0,30.30,North,10,4.0,-999.0,26,-99.99,,,0.00,weatherlink.com 1.10,2013-03-14 00:04:00,
2013-03-13 19:19:00,63.5,29.0,30.31,NNE,18,0.0,-999.0,27,-99.99,,,0.00,weatherlink.com 1.10,2013-03-14 00:19:00,
2013-03-13 19:34:00,62.4,28.0,30.31,NNE,18,0.0,-999.0,27,-99.99,,,0.00,weatherlink.com 1.10,2013-03-14 00:34:00,
2013-03-13 19:49:00,61.2,28.0,30.31,NNE,18,0.0,-999.0,28,-99.99,,,0.00,weatherlink.com 1.10,2013-03-14 00:49:00,
2013-03-13 20:04:00,59.8,28.0,30.32,NNE,18,0.0,-999.0,30,-99.99,,,0.00,weatherlink.com 1.10,2013-03-14 01:04:00,
2013-03-13 20:19:00,58.3,28.0,30.32,NNE,18,0.0,-999.0,31,-99.99,,,0.00,weatherlink.com 1.10,2013-03-14 01:19:00,
2013-03-13 20:34:00,56.9,27.0,30.33,NNE,18,0.0,-999.0,32,-99.99,,,0.00,weatherlink.com 1.10,2013-03-14 01:34:00,
2013-03-13 20:49:00,55.9,28.0,30.33,NNE,18,0.0,-999.0,34,-99.99,,,0.00,weatherlink.com 1.10,2013-03-14 01:49:00,
2013-03-13 21:04:00,55.0,30.0,30.34,NNE,18,0.0,-999.0,38,-99.99,,,0.00,weatherlink.com 1.10,2013-03-14 02:04:00,
2013-03-13 21:19:00,53.9,29.0,30.35,NNE,31,0.0,-999.0,39,-99.99,,,0.00,weatherlink.com 1.10,2013-03-14 02:19:00,
2013-03-13 21:34:00,53.3,30.0,30.35,NNE,32,0.0,-999.0,41,-99.99,,,0.00,weatherlink.com 1.10,2013-03-14 02:34:00,
2013-03-13 21:49:00,52.9,30.0,30.36,NNE,32,0.0,-999.0,42,-99.99,,,0.00,weatherlink.com 1.10,2013-03-14 02:49:00,
2013-03-13 22:04:00,52.5,30.0,30.37,NNE,32,0.0,-999.0,42,-99.99,,,0.00,weatherlink.com 1.10,2013-03-14 03:04:00,
2013-03-13 22:19:00,51.7,32.0,30.37,NNE,31,0.0,-999.0,47,-99.99,,,0.00,weatherlink.com 1.10,2013-03-14 03:19:00,
2013-03-13 22:34:00,51.0,31.0,30.37,NNE,32,0.0,-999.0,46,-99.99,,,0.00,weatherlink.com 1.10,2013-03-14 03:34:00,
2013-03-13 22:49:00,50.1,32.0,30.37,NNE,32,0.0,-999.0,50,-99.99,,,0.00,weatherlink.com 1.10,2013-03-14 03:49:00,
2013-03-13 23:04:00,49.2,32.0,30.38,NNE,31,0.0,-999.0,51,-99.99,,,0.00,weatherlink.com 1.10,2013-03-14 04:04:00,
2013-03-13 23:19:00,48.5,32.0,30.37,NNE,31,0.0,-999.0,53,-99.99,,,0.00,weatherlink.com 1.10,2013-03-14 04:19:00,
2013-03-13 23:34:00,47.7,32.0,30.37,NNE,31,0.0,-999.0,55,-99.99,,,0.00,weatherlink.com 1.10,2013-03-14 04:34:00,
2013-03-13 23:49:00,47.0,33.0,30.37,NNE,31,0.0,-999.0,58,-99.99,,,0.00,weatherlink.com 1.10,2013-03-14 04:49:00,